Latest Coastal Weather Observations for Sydney Harbour

IDN60701

Issued at 5:11 pm EDT Friday 24 March 2017 (issued every 10 minutes, with the page automatically refreshed every 10 minutes)

About coastal observations | Map of coastal stations | Coastal observations for NSW | Marine services | Other Formats
Station Details ID: 066196 Name: WEDDING CAKE WEST Lat: -33.84 Lon: 151.26 Height: 6.0 m
Data from the previous 72 hours. | See also: Recent months at Sydney Harbour
Date/Time
EDT
Temp
°C
Wind Pressure Rain since
9am
mm
Weather Cloud Vis
km
Sea
Height
m
Swell
Dir  Spd
kts
Gust
kts
hPa Trend Height
m
Period
s
Dir
24/05:00pm 20.6 SE 10 13 - - - - - - - - - -
24/04:30pm 21.7 SE 9 13 - - - - - - - - - -
24/04:00pm 21.5 SSE 14 18 - - - - - - - - - -
24/03:30pm 22.0 SSW 10 13 - - - - - - - - - -
24/03:00pm 22.2 SE 12 15 - - - - - - - - - -
24/02:30pm 20.8 SSE 9 13 - - - - - - - - - -
24/02:00pm 21.0 SW 16 19 - - - - - - - - - -
24/01:30pm 22.5 S 11 16 - - - - - - - - - -
24/01:00pm 22.5 SSE 12 18 - - - - - - - - - -
24/12:30pm 22.1 ESE 5 8 - - - - - - - - - -
24/12:00pm 21.1 SE 14 19 - - - - - - - - - -
24/11:30am 22.9 SE 8 11 - - - - - - - - - -
24/11:00am 22.5 SE 11 16 - - - - - - - - - -
24/10:30am 22.1 SSE 12 15 - - - - - - - - - -
24/10:00am 21.8 SSW 7 13 - - - - - - - - - -
24/09:30am 21.4 WSW 7 8 - - - - - - - - - -
24/09:00am 20.0 WSW 7 9 - - - - - - - - - -
24/08:30am 20.0 WSW 9 11 - - - - - - - - - -
24/08:00am 19.9 WSW 8 11 - - - - - - - - - -
24/07:30am 19.5 WSW 6 8 - - - - - - - - - -
24/07:00am 19.4 W 8 11 - - - - - - - - - -
24/06:30am 19.8 SW 5 7 - - - - - - - - - -
24/06:00am 19.9 WSW 8 11 - - - - - - - - - -
24/05:30am 19.5 SSW 10 13 - - - - - - - - - -
24/05:18am 19.9 SW 12 21 - - - - - - - - - -
24/05:00am 20.1 WSW 8 10 - - - - - - - - - -
24/04:30am 20.4 SSW 7 8 - - - - - - - - - -
24/04:00am 19.8 S 8 12 - - - - - - - - - -
24/03:30am 19.6 S 9 13 - - - - - - - - - -
24/03:00am 20.3 SSW 7 8 - - - - - - - - - -
24/02:30am 20.3 SSW 7 9 - - - - - - - - - -
24/02:00am 20.2 S 7 11 - - - - - - - - - -
24/01:30am 20.9 S 9 14 - - - - - - - - - -
24/01:00am 20.3 SSE 11 15 - - - - - - - - - -
24/12:30am 19.6 S 13 19 - - - - - - - - - -
24/12:00am 20.2 SSW 13 17 - - - - - - - - - -
 
Date/Time
EDT
Temp
°C
Wind Pressure Rain since
9am
mm
Weather Cloud Vis
km
Sea
Height
m
Swell
Dir  Spd
kts
Gust
kts
hPa Trend Height
m
Period
s
Dir
23/11:30pm 19.6 SSW 14 17 - - - - - - - - - -
23/11:00pm 19.7 SSW 15 19 - - - - - - - - - -
23/10:30pm 19.7 SW 15 19 - - - - - - - - - -
23/10:00pm 19.9 SW 14 19 - - - - - - - - - -
23/09:30pm 19.9 SW 13 18 - - - - - - - - - -
23/09:00pm 19.7 SW 10 13 - - - - - - - - - -
23/08:30pm 20.1 SW 14 18 - - - - - - - - - -
23/08:00pm 20.4 SW 11 14 - - - - - - - - - -
23/07:30pm 20.4 SW 11 14 - - - - - - - - - -
23/07:00pm 20.0 SW 11 14 - - - - - - - - - -
23/06:30pm 20.2 SW 12 15 - - - - - - - - - -
23/06:00pm 19.8 SW 11 13 - - - - - - - - - -
23/05:30pm 20.6 SW 13 16 - - - - - - - - - -
23/05:00pm 20.7 SSW 13 16 - - - - - - - - - -
23/04:30pm 20.9 SSW 14 16 - - - - - - - - - -
23/04:00pm 21.0 SSW 13 16 - - - - - - - - - -
23/03:30pm 21.3 SSW 16 19 - - - - - - - - - -
23/03:00pm 21.6 SSW 16 19 - - - - - - - - - -
23/02:30pm 21.8 SSW 17 20 - - - - - - - - - -
23/02:00pm 21.6 SSW 15 18 - - - - - - - - - -
23/01:30pm 21.6 SSW 15 20 - - - - - - - - - -
23/01:00pm 21.7 SSW 16 19 - - - - - - - - - -
23/12:30pm 22.0 SSW 15 20 - - - - - - - - - -
23/12:00pm 21.7 SSW 16 19 - - - - - - - - - -
23/11:30am 21.5 SSW 17 21 - - - - - - - - - -
23/11:00am 21.8 SSW 18 23 - - - - - - - - - -
23/10:30am 21.8 SSW 15 20 - - - - - - - - - -
23/10:00am 21.6 SSW 18 21 - - - - - - - - - -
23/09:30am 21.3 SSW 16 21 - - - - - - - - - -
23/09:00am 21.5 SSW 17 20 - - - - - - - - - -
23/08:30am 21.4 SW 19 23 - - - - - - - - - -
23/08:00am 21.4 SW 16 21 - - - - - - - - - -
23/07:30am 21.3 SW 15 21 - - - - - - - - - -
23/07:00am 21.4 SW 15 19 - - - - - - - - - -
23/06:30am 21.4 SSW 18 23 - - - - - - - - - -
23/06:00am 21.4 SSW 19 26 - - - - - - - - - -
23/05:30am 21.4 SSW 18 23 - - - - - - - - - -
23/05:00am 21.3 SSW 18 22 - - - - - - - - - -
23/04:30am 21.5 SSW 17 23 - - - - - - - - - -
23/04:00am 21.7 SSW 15 20 - - - - - - - - - -
23/03:30am 21.7 SSW 15 20 - - - - - - - - - -
23/03:00am 21.7 SSW 15 19 - - - - - - - - - -
23/02:30am 21.7 SSW 16 21 - - - - - - - - - -
23/02:00am 21.8 SSW 17 24 - - - - - - - - - -
23/01:47am 22.0 SSW 15 26 - - - - - - - - - -
23/01:30am 22.3 SSW 15 22 - - - - - - - - - -
23/01:00am 22.1 SSW 16 22 - - - - - - - - - -
23/12:30am 22.1 SSW 16 21 - - - - - - - - - -
23/12:00am 22.2 SSW 16 20 - - - - - - - - - -
 
Date/Time
EDT
Temp
°C
Wind Pressure Rain since
9am
mm
Weather Cloud Vis
km
Sea
Height
m
Swell
Dir  Spd
kts
Gust
kts
hPa Trend Height
m
Period
s
Dir
22/11:30pm 22.9 SSW 16 20 - - - - - - - - - -
22/11:00pm 22.9 SSW 14 19 - - - - - - - - - -
22/10:30pm 23.0 S 16 19 - - - - - - - - - -
22/10:00pm 23.2 S 13 18 - - - - - - - - - -
22/09:30pm 22.6 SW 13 17 - - - - - - - - - -
22/09:00pm 22.8 SW 11 14 - - - - - - - - - -
22/08:30pm 22.7 SW 10 13 - - - - - - - - - -
22/08:00pm 22.1 WSW 10 13 - - - - - - - - - -
22/07:30pm 22.2 W 9 13 - - - - - - - - - -
22/07:00pm 22.8 NNE 10 12 - - - - - - - - - -
22/06:30pm 23.1 NE 7 11 - - - - - - - - - -
22/06:00pm 21.3 SSW 10 14 - - - - - - - - - -
22/05:58pm 21.2 SW 11 15 - - - - - - - - - -
22/05:44pm 21.2 SW 25 35 - - - - - - - - - -
22/05:30pm 21.8 WSW 27 35 - - - - - - - - - -
22/05:23pm 24.1 W 18 34 - - - - - - - - - -
22/05:18pm 24.9 WSW 14 22 - - - - - - - - - -
22/05:00pm 25.1 SW 8 10 - - - - - - - - - -
22/04:30pm 26.0 ENE 3 5 - - - - - - - - - -
22/04:00pm 25.4 ENE 7 9 - - - - - - - - - -
22/03:30pm 27.2 ENE 9 11 - - - - - - - - - -
22/03:00pm 26.4 ENE 8 9 - - - - - - - - - -
22/02:30pm 26.7 ENE 8 9 - - - - - - - - - -
22/02:00pm 27.3 N 6 7 - - - - - - - - - -
22/01:30pm 26.6 N 5 7 - - - - - - - - - -
22/01:00pm 28.0 N 5 6 - - - - - - - - - -
22/12:30pm 26.7 N 3 4 - - - - - - - - - -
22/12:00pm 25.8 N 6 7 - - - - - - - - - -
22/11:30am 26.4 CALM 0 3 - - - - - - - - - -
22/11:00am 25.6 NW 6 7 - - - - - - - - - -
22/10:30am 24.5 CALM 0 0 - - - - - - - - - -
22/10:00am 25.4 NW 1 5 - - - - - - - - - -
22/09:30am 25.2 NW 5 7 - - - - - - - - - -
22/09:00am 24.9 NW 4 7 - - - - - - - - - -
22/08:30am 24.8 NNW 8 11 - - - - - - - - - -
22/08:00am 24.5 NNW 10 13 - - - - - - - - - -
22/07:30am 24.4 NNW 8 13 - - - - - - - - - -
22/07:00am 23.5 N 1 3 - - - - - - - - - -
22/06:30am 23.3 CALM 0 0 - - - - - - - - - -
22/06:00am 23.7 N 5 6 - - - - - - - - - -
22/05:30am 23.9 N 9 10 - - - - - - - - - -
22/05:00am 23.6 WSW 2 6 - - - - - - - - - -
22/04:30am 23.5 WSW 3 6 - - - - - - - - - -
22/04:00am 23.6 WSW 7 9 - - - - - - - - - -
22/03:30am 24.0 W 9 12 - - - - - - - - - -
22/03:00am 24.5 NW 4 9 - - - - - - - - - -
22/02:30am 24.6 W 4 8 - - - - - - - - - -
22/02:00am 24.5 W 7 11 - - - - - - - - - -
22/01:30am 23.1 WSW 6 8 - - - - - - - - - -
22/01:00am 23.2 WSW 5 6 - - - - - - - - - -
22/12:30am 23.3 WSW 4 6 - - - - - - - - - -
22/12:00am 23.1 N 8 11 - - - - - - - - - -
 
Date/Time
EDT
Temp
°C
Wind Pressure Rain since
9am
mm
Weather Cloud Vis
km
Sea
Height
m
Swell
Dir  Spd
kts
Gust
kts
hPa Trend Height
m
Period
s
Dir
21/11:30pm 23.3 WNW 8 11 - - - - - - - - - -
21/11:00pm 23.2 W 6 9 - - - - - - - - - -
21/10:30pm 23.4 N 8 10 - - - - - - - - - -
21/10:00pm 23.4 NNE 11 14 - - - - - - - - - -
21/09:30pm 23.6 N 10 13 - - - - - - - - - -
21/09:00pm 23.7 NNE 17 19 - - - - - - - - - -
21/08:30pm 23.7 ENE 9 10 - - - - - - - - - -
21/08:00pm 23.6 E 9 12 - - - - - - - - - -
21/07:30pm 23.7 SW 4 5 - - - - - - - - - -
21/07:00pm 23.8 SW 5 7 - - - - - - - - - -
21/06:30pm 24.1 SW 5 6 - - - - - - - - - -
21/06:00pm 24.0 SW 6 9 - - - - - - - - - -
21/05:30pm 24.2 NNE 7 9 - - - - - - - - - -

Other Formats:

Comma delimited format used in spreadsheet applications
http://www.bom.gov.au/fwo/IDN60701/IDN60701.95766.axf

JavaScript Object Notation format (JSON) in row-major order
http://www.bom.gov.au/fwo/IDN60701/IDN60701.95766.json